sensor_id;sensor_type;location;lat;lon;timestamp;temperature;humidity
46676;DHT22;32412;51.478;5.694;2022-10-03T00:01:21;8.20;99.90
46676;DHT22;32412;51.478;5.694;2022-10-03T00:09:26;8.20;99.90
46676;DHT22;32412;51.478;5.694;2022-10-03T00:12:12;8.20;99.90
46676;DHT22;32412;51.478;5.694;2022-10-03T00:23:06;8.20;99.90
46676;DHT22;32412;51.478;5.694;2022-10-03T00:26:00;8.20;99.90
46676;DHT22;32412;51.478;5.694;2022-10-03T00:34:53;8.10;99.90
46676;DHT22;32412;51.478;5.694;2022-10-03T00:37:24;8.10;99.90
46676;DHT22;32412;51.478;5.694;2022-10-03T00:48:18;8.00;99.90
46676;DHT22;32412;51.478;5.694;2022-10-03T00:51:24;7.90;99.90
46676;DHT22;32412;51.478;5.694;2022-10-03T01:05:48;7.80;99.90
46676;DHT22;32412;51.478;5.694;2022-10-03T01:11:37;7.80;99.90
46676;DHT22;32412;51.478;5.694;2022-10-03T01:25:36;7.60;99.90
46676;DHT22;32412;51.478;5.694;2022-10-03T01:31:09;7.50;99.90
46676;DHT22;32412;51.478;5.694;2022-10-03T01:34:06;7.50;99.90
46676;DHT22;32412;51.478;5.694;2022-10-03T01:36:59;7.50;99.90
46676;DHT22;32412;51.478;5.694;2022-10-03T01:45:22;7.30;99.90
46676;DHT22;32412;51.478;5.694;2022-10-03T01:47:52;7.20;99.90
46676;DHT22;32412;51.478;5.694;2022-10-03T01:56:20;7.30;99.90
46676;DHT22;32412;51.478;5.694;2022-10-03T01:59:22;7.30;99.90
46676;DHT22;32412;51.478;5.694;2022-10-03T02:07:59;7.40;99.90
46676;DHT22;32412;51.478;5.694;2022-10-03T02:10:39;7.40;99.90
46676;DHT22;32412;51.478;5.694;2022-10-03T02:13:17;7.40;99.90
46676;DHT22;32412;51.478;5.694;2022-10-03T02:16:06;7.40;99.90
46676;DHT22;32412;51.478;5.694;2022-10-03T02:19:05;7.40;99.90
46676;DHT22;32412;51.478;5.694;2022-10-03T02:21:31;7.40;99.90
46676;DHT22;32412;51.478;5.694;2022-10-03T02:27:12;7.30;99.90
46676;DHT22;32412;51.478;5.694;2022-10-03T02:30:25;7.30;99.90
46676;DHT22;32412;51.478;5.694;2022-10-03T03:06:21;7.20;99.90
46676;DHT22;32412;51.478;5.694;2022-10-03T03:09:35;7.20;99.90
46676;DHT22;32412;51.478;5.694;2022-10-03T03:29:19;6.90;99.90
46676;DHT22;32412;51.478;5.694;2022-10-03T03:32:12;6.80;99.90
46676;DHT22;32412;51.478;5.694;2022-10-03T03:37:43;6.70;99.90
46676;DHT22;32412;51.478;5.694;2022-10-03T03:43:28;6.80;99.90
46676;DHT22;32412;51.478;5.694;2022-10-03T03:46:20;6.90;99.90
46676;DHT22;32412;51.478;5.694;2022-10-03T03:51:32;7.00;99.90
46676;DHT22;32412;51.478;5.694;2022-10-03T03:57:23;7.00;99.90
46676;DHT22;32412;51.478;5.694;2022-10-03T04:00:05;7.00;99.90
46676;DHT22;32412;51.478;5.694;2022-10-03T04:02:56;7.00;99.90
46676;DHT22;32412;51.478;5.694;2022-10-03T04:06:01;7.00;99.90
46676;DHT22;32412;51.478;5.694;2022-10-03T04:09:04;7.00;99.90
46676;DHT22;32412;51.478;5.694;2022-10-03T04:20:46;6.80;99.90
46676;DHT22;32412;51.478;5.694;2022-10-03T04:46:46;6.70;99.90
46676;DHT22;32412;51.478;5.694;2022-10-03T04:49:30;6.70;99.90
46676;DHT22;32412;51.478;5.694;2022-10-03T04:52:17;6.60;99.90
46676;DHT22;32412;51.478;5.694;2022-10-03T05:08:32;6.60;99.90
46676;DHT22;32412;51.478;5.694;2022-10-03T05:16:42;6.70;99.90
46676;DHT22;32412;51.478;5.694;2022-10-03T05:22:07;6.60;99.90
46676;DHT22;32412;51.478;5.694;2022-10-03T05:24:48;6.60;99.90
46676;DHT22;32412;51.478;5.694;2022-10-03T05:27:21;6.60;99.90
46676;DHT22;32412;51.478;5.694;2022-10-03T05:29:57;6.60;99.90
46676;DHT22;32412;51.478;5.694;2022-10-03T05:32:40;6.40;99.90
46676;DHT22;32412;51.478;5.694;2022-10-03T05:35:27;6.40;99.90
46676;DHT22;32412;51.478;5.694;2022-10-03T05:38:12;6.40;99.90
46676;DHT22;32412;51.478;5.694;2022-10-03T05:58:25;6.40;99.90
46676;DHT22;32412;51.478;5.694;2022-10-03T06:10:13;6.70;99.90
46676;DHT22;32412;51.478;5.694;2022-10-03T06:12:53;6.70;99.90
46676;DHT22;32412;51.478;5.694;2022-10-03T06:15:32;6.80;99.90
46676;DHT22;32412;51.478;5.694;2022-10-03T06:18:25;6.80;99.90
46676;DHT22;32412;51.478;5.694;2022-10-03T06:24:15;6.90;99.90
46676;DHT22;32412;51.478;5.694;2022-10-03T06:35:20;7.30;99.90
46676;DHT22;32412;51.478;5.694;2022-10-03T06:59:48;8.80;99.90
46676;DHT22;32412;51.478;5.694;2022-10-03T07:20:12;9.50;99.90
46676;DHT22;32412;51.478;5.694;2022-10-03T07:38:11;10.30;99.90
46676;DHT22;32412;51.478;5.694;2022-10-03T07:56:30;11.20;99.90
46676;DHT22;32412;51.478;5.694;2022-10-03T08:01:27;11.60;99.90
46676;DHT22;32412;51.478;5.694;2022-10-03T08:09:37;12.10;99.90
46676;DHT22;32412;51.478;5.694;2022-10-03T08:14:54;12.60;99.90
46676;DHT22;32412;51.478;5.694;2022-10-03T08:17:44;12.70;99.90
46676;DHT22;32412;51.478;5.694;2022-10-03T08:25:59;13.10;99.90
46676;DHT22;32412;51.478;5.694;2022-10-03T08:51:54;14.20;99.90
46676;DHT22;32412;51.478;5.694;2022-10-03T09:00:40;14.60;99.90
46676;DHT22;32412;51.478;5.694;2022-10-03T09:03:35;14.80;99.90
46676;DHT22;32412;51.478;5.694;2022-10-03T09:23:19;16.60;99.90
46676;DHT22;32412;51.478;5.694;2022-10-03T09:37:16;19.60;99.90
46676;DHT22;32412;51.478;5.694;2022-10-03T09:40:02;20.00;99.90
46676;DHT22;32412;51.478;5.694;2022-10-03T10:20:38;23.10;99.90
46676;DHT22;32412;51.478;5.694;2022-10-03T10:31:22;23.50;99.90
46676;DHT22;32412;51.478;5.694;2022-10-03T10:45:45;25.10;99.90
46676;DHT22;32412;51.478;5.694;2022-10-03T10:48:42;25.90;98.70
46676;DHT22;32412;51.478;5.694;2022-10-03T11:19:38;23.90;99.40
46676;DHT22;32412;51.478;5.694;2022-10-03T11:39:06;23.70;99.90
46676;DHT22;32412;51.478;5.694;2022-10-03T11:41:46;24.10;99.80
46676;DHT22;32412;51.478;5.694;2022-10-03T11:44:20;25.10;99.30
46676;DHT22;32412;51.478;5.694;2022-10-03T11:55:59;26.30;96.30
46676;DHT22;32412;51.478;5.694;2022-10-03T12:03:55;26.30;95.80
46676;DHT22;32412;51.478;5.694;2022-10-03T12:09:44;24.30;96.30
46676;DHT22;32412;51.478;5.694;2022-10-03T12:12:36;25.00;98.00
46676;DHT22;32412;51.478;5.694;2022-10-03T12:18:05;25.90;95.30
46676;DHT22;32412;51.478;5.694;2022-10-03T12:26:24;23.90;97.90
46676;DHT22;32412;51.478;5.694;2022-10-03T12:28:54;23.10;97.90
46676;DHT22;32412;51.478;5.694;2022-10-03T12:31:25;22.40;99.50
46676;DHT22;32412;51.478;5.694;2022-10-03T12:40:11;20.50;99.90
46676;DHT22;32412;51.478;5.694;2022-10-03T12:45:49;20.20;99.90
46676;DHT22;32412;51.478;5.694;2022-10-03T12:57:25;20.00;99.90
46676;DHT22;32412;51.478;5.694;2022-10-03T13:02:38;20.20;99.90
46676;DHT22;32412;51.478;5.694;2022-10-03T13:05:34;20.40;99.90
46676;DHT22;32412;51.478;5.694;2022-10-03T13:10:54;20.60;99.90
46676;DHT22;32412;51.478;5.694;2022-10-03T13:16:27;20.80;99.90
46676;DHT22;32412;51.478;5.694;2022-10-03T13:27:43;19.80;99.90
46676;DHT22;32412;51.478;5.694;2022-10-03T13:30:21;20.00;99.90
46676;DHT22;32412;51.478;5.694;2022-10-03T13:32:50;20.00;99.90
46676;DHT22;32412;51.478;5.694;2022-10-03T13:35:33;20.10;99.90
46676;DHT22;32412;51.478;5.694;2022-10-03T13:43:32;20.10;99.90
46676;DHT22;32412;51.478;5.694;2022-10-03T13:46:10;20.10;99.90
46676;DHT22;32412;51.478;5.694;2022-10-03T13:48:38;20.10;99.90
46676;DHT22;32412;51.478;5.694;2022-10-03T13:51:22;20.00;99.90
46676;DHT22;32412;51.478;5.694;2022-10-03T13:53:57;19.90;99.90
46676;DHT22;32412;51.478;5.694;2022-10-03T14:11:23;19.30;99.90
46676;DHT22;32412;51.478;5.694;2022-10-03T14:16:40;19.40;99.90
46676;DHT22;32412;51.478;5.694;2022-10-03T14:20:08;19.30;99.90
46676;DHT22;32412;51.478;5.694;2022-10-03T14:27:45;19.30;99.90
46676;DHT22;32412;51.478;5.694;2022-10-03T14:32:58;19.30;99.90
46676;DHT22;32412;51.478;5.694;2022-10-03T14:40:49;19.20;99.90
46676;DHT22;32412;51.478;5.694;2022-10-03T14:43:37;19.20;99.90
46676;DHT22;32412;51.478;5.694;2022-10-03T14:46:08;19.00;99.90
46676;DHT22;32412;51.478;5.694;2022-10-03T14:48:40;18.80;99.90
46676;DHT22;32412;51.478;5.694;2022-10-03T14:51:14;18.80;99.90
46676;DHT22;32412;51.478;5.694;2022-10-03T14:53:52;18.80;99.90
46676;DHT22;32412;51.478;5.694;2022-10-03T14:56:20;18.80;99.90
46676;DHT22;32412;51.478;5.694;2022-10-03T14:58:52;18.80;99.90
46676;DHT22;32412;51.478;5.694;2022-10-03T15:01:23;18.70;99.90
46676;DHT22;32412;51.478;5.694;2022-10-03T15:04:16;18.70;99.90
46676;DHT22;32412;51.478;5.694;2022-10-03T15:09:20;18.60;99.90
46676;DHT22;32412;51.478;5.694;2022-10-03T15:11:52;18.60;99.90
46676;DHT22;32412;51.478;5.694;2022-10-03T15:14:20;18.50;99.90
46676;DHT22;32412;51.478;5.694;2022-10-03T15:16:52;18.40;99.90
46676;DHT22;32412;51.478;5.694;2022-10-03T15:19:39;18.50;99.90
46676;DHT22;32412;51.478;5.694;2022-10-03T15:24:44;18.50;99.90
46676;DHT22;32412;51.478;5.694;2022-10-03T15:27:18;18.40;99.90
46676;DHT22;32412;51.478;5.694;2022-10-03T15:29:49;18.40;99.90
46676;DHT22;32412;51.478;5.694;2022-10-03T15:32:26;18.40;99.90
46676;DHT22;32412;51.478;5.694;2022-10-03T15:34:57;18.40;99.90
46676;DHT22;32412;51.478;5.694;2022-10-03T15:37:30;18.40;99.90
46676;DHT22;32412;51.478;5.694;2022-10-03T15:40:04;18.40;99.90
46676;DHT22;32412;51.478;5.694;2022-10-03T15:42:47;18.40;99.90
46676;DHT22;32412;51.478;5.694;2022-10-03T15:45:25;18.30;99.90
46676;DHT22;32412;51.478;5.694;2022-10-03T15:47:55;18.30;99.90
46676;DHT22;32412;51.478;5.694;2022-10-03T15:50:26;18.20;99.90
46676;DHT22;32412;51.478;5.694;2022-10-03T15:52:55;18.10;99.90
46676;DHT22;32412;51.478;5.694;2022-10-03T15:55:35;18.00;99.90
46676;DHT22;32412;51.478;5.694;2022-10-03T15:58:19;17.90;99.90
46676;DHT22;32412;51.478;5.694;2022-10-03T16:03:54;17.80;99.90
46676;DHT22;32412;51.478;5.694;2022-10-03T16:06:42;17.70;99.90
46676;DHT22;32412;51.478;5.694;2022-10-03T16:09:24;17.70;99.90
46676;DHT22;32412;51.478;5.694;2022-10-03T16:17:50;17.80;99.90
46676;DHT22;32412;51.478;5.694;2022-10-03T16:20:40;17.70;99.90
46676;DHT22;32412;51.478;5.694;2022-10-03T16:23:17;17.50;99.90
46676;DHT22;32412;51.478;5.694;2022-10-03T16:25:57;17.30;99.90
46676;DHT22;32412;51.478;5.694;2022-10-03T16:28:43;17.20;99.90
46676;DHT22;32412;51.478;5.694;2022-10-03T16:31:19;17.10;99.90
46676;DHT22;32412;51.478;5.694;2022-10-03T16:33:50;17.00;99.90
46676;DHT22;32412;51.478;5.694;2022-10-03T16:36:19;17.00;99.90
46676;DHT22;32412;51.478;5.694;2022-10-03T16:39:00;16.70;99.90
46676;DHT22;32412;51.478;5.694;2022-10-03T16:41:34;16.60;99.90
46676;DHT22;32412;51.478;5.694;2022-10-03T16:44:16;16.50;99.90
46676;DHT22;32412;51.478;5.694;2022-10-03T16:46:43;16.40;99.90
46676;DHT22;32412;51.478;5.694;2022-10-03T16:49:23;16.30;99.90
46676;DHT22;32412;51.478;5.694;2022-10-03T16:52:32;16.10;99.90
46676;DHT22;32412;51.478;5.694;2022-10-03T16:58:31;15.90;99.90
46676;DHT22;32412;51.478;5.694;2022-10-03T17:01:04;15.80;99.90
46676;DHT22;32412;51.478;5.694;2022-10-03T17:03:44;15.80;99.90
46676;DHT22;32412;51.478;5.694;2022-10-03T17:06:19;15.70;99.90
46676;DHT22;32412;51.478;5.694;2022-10-03T17:08:50;15.60;99.90
46676;DHT22;32412;51.478;5.694;2022-10-03T17:11:20;15.50;99.90
46676;DHT22;32412;51.478;5.694;2022-10-03T17:14:06;15.40;99.90
46676;DHT22;32412;51.478;5.694;2022-10-03T17:16:39;15.20;99.90
46676;DHT22;32412;51.478;5.694;2022-10-03T17:19:32;15.10;99.90
46676;DHT22;32412;51.478;5.694;2022-10-03T17:22:16;15.00;99.90
46676;DHT22;32412;51.478;5.694;2022-10-03T17:25:29;14.80;99.90
46676;DHT22;32412;51.478;5.694;2022-10-03T17:27:39;14.70;99.90
46676;DHT22;32412;51.478;5.694;2022-10-03T17:30:30;14.60;99.90
46676;DHT22;32412;51.478;5.694;2022-10-03T17:33:01;14.60;99.90
46676;DHT22;32412;51.478;5.694;2022-10-03T17:35:39;14.50;99.90
46676;DHT22;32412;51.478;5.694;2022-10-03T17:38:22;14.50;99.90
46676;DHT22;32412;51.478;5.694;2022-10-03T17:41:12;14.50;99.90
46676;DHT22;32412;51.478;5.694;2022-10-03T17:53:58;14.30;99.90
46676;DHT22;32412;51.478;5.694;2022-10-03T17:56:26;14.20;99.90
46676;DHT22;32412;51.478;5.694;2022-10-03T17:59:02;14.10;99.90
46676;DHT22;32412;51.478;5.694;2022-10-03T18:01:42;14.00;99.90
46676;DHT22;32412;51.478;5.694;2022-10-03T18:04:18;14.00;99.90
46676;DHT22;32412;51.478;5.694;2022-10-03T18:06:45;14.10;99.90
46676;DHT22;32412;51.478;5.694;2022-10-03T18:11:41;14.00;99.90
46676;DHT22;32412;51.478;5.694;2022-10-03T18:16:52;14.00;99.90
46676;DHT22;32412;51.478;5.694;2022-10-03T18:22:20;14.00;99.90
46676;DHT22;32412;51.478;5.694;2022-10-03T18:25:27;13.90;99.90
46676;DHT22;32412;51.478;5.694;2022-10-03T18:33:46;13.70;99.90
46676;DHT22;32412;51.478;5.694;2022-10-03T18:36:22;13.60;99.90
46676;DHT22;32412;51.478;5.694;2022-10-03T18:38:51;13.60;99.90
46676;DHT22;32412;51.478;5.694;2022-10-03T18:41:19;13.50;99.90
46676;DHT22;32412;51.478;5.694;2022-10-03T18:43:55;13.50;99.90
46676;DHT22;32412;51.478;5.694;2022-10-03T18:46:31;13.40;99.90
46676;DHT22;32412;51.478;5.694;2022-10-03T18:49:16;13.40;99.90
46676;DHT22;32412;51.478;5.694;2022-10-03T18:51:45;13.30;99.90
46676;DHT22;32412;51.478;5.694;2022-10-03T18:57:25;13.30;99.90
46676;DHT22;32412;51.478;5.694;2022-10-03T19:00:05;13.20;99.90
46676;DHT22;32412;51.478;5.694;2022-10-03T19:03:00;13.20;99.90
46676;DHT22;32412;51.478;5.694;2022-10-03T19:05:45;13.10;99.90
46676;DHT22;32412;51.478;5.694;2022-10-03T19:08:40;13.10;99.90
46676;DHT22;32412;51.478;5.694;2022-10-03T19:22:07;12.80;99.90
46676;DHT22;32412;51.478;5.694;2022-10-03T19:24:38;12.70;99.90
46676;DHT22;32412;51.478;5.694;2022-10-03T19:27:17;12.60;99.90
46676;DHT22;32412;51.478;5.694;2022-10-03T19:29:47;12.60;99.90
46676;DHT22;32412;51.478;5.694;2022-10-03T19:35:18;12.40;99.90
46676;DHT22;32412;51.478;5.694;2022-10-03T19:37:50;12.40;99.90
46676;DHT22;32412;51.478;5.694;2022-10-03T19:41:03;12.30;99.90
46676;DHT22;32412;51.478;5.694;2022-10-03T19:43:47;12.20;99.90
46676;DHT22;32412;51.478;5.694;2022-10-03T19:48:53;12.10;99.90
46676;DHT22;32412;51.478;5.694;2022-10-03T19:51:23;12.00;99.90
46676;DHT22;32412;51.478;5.694;2022-10-03T19:53:51;12.00;99.90
46676;DHT22;32412;51.478;5.694;2022-10-03T19:56:18;12.00;99.90
46676;DHT22;32412;51.478;5.694;2022-10-03T19:58:47;12.00;99.90
46676;DHT22;32412;51.478;5.694;2022-10-03T20:01:21;11.90;99.90
46676;DHT22;32412;51.478;5.694;2022-10-03T20:03:52;11.90;99.90
46676;DHT22;32412;51.478;5.694;2022-10-03T20:06:28;11.90;99.90
46676;DHT22;32412;51.478;5.694;2022-10-03T20:09:00;12.00;99.90
46676;DHT22;32412;51.478;5.694;2022-10-03T20:11:48;12.00;99.90
46676;DHT22;32412;51.478;5.694;2022-10-03T20:14:19;11.90;99.90
46676;DHT22;32412;51.478;5.694;2022-10-03T20:16:58;12.00;99.90
46676;DHT22;32412;51.478;5.694;2022-10-03T20:19:34;12.10;99.90
46676;DHT22;32412;51.478;5.694;2022-10-03T20:22:03;12.00;99.90
46676;DHT22;32412;51.478;5.694;2022-10-03T20:24:43;12.10;99.90
46676;DHT22;32412;51.478;5.694;2022-10-03T20:32:55;12.10;99.90
46676;DHT22;32412;51.478;5.694;2022-10-03T20:40:40;12.10;99.90
46676;DHT22;32412;51.478;5.694;2022-10-03T20:43:13;12.20;99.90
46676;DHT22;32412;51.478;5.694;2022-10-03T20:45:51;12.20;99.90
46676;DHT22;32412;51.478;5.694;2022-10-03T20:48:23;12.20;99.90
46676;DHT22;32412;51.478;5.694;2022-10-03T20:50:52;12.30;99.90
46676;DHT22;32412;51.478;5.694;2022-10-03T20:53:26;12.30;99.90
46676;DHT22;32412;51.478;5.694;2022-10-03T20:56:00;12.30;99.90
46676;DHT22;32412;51.478;5.694;2022-10-03T20:58:31;12.30;99.90
46676;DHT22;32412;51.478;5.694;2022-10-03T21:01:06;12.30;99.90
46676;DHT22;32412;51.478;5.694;2022-10-03T21:03:42;12.30;99.90
46676;DHT22;32412;51.478;5.694;2022-10-03T21:06:18;12.30;99.90
46676;DHT22;32412;51.478;5.694;2022-10-03T21:08:45;12.30;99.90
46676;DHT22;32412;51.478;5.694;2022-10-03T21:11:14;12.30;99.90
46676;DHT22;32412;51.478;5.694;2022-10-03T21:16:36;12.30;99.90
46676;DHT22;32412;51.478;5.694;2022-10-03T21:19:23;12.30;99.90
46676;DHT22;32412;51.478;5.694;2022-10-03T21:21:56;12.30;99.90
46676;DHT22;32412;51.478;5.694;2022-10-03T21:24:29;12.30;99.90
46676;DHT22;32412;51.478;5.694;2022-10-03T21:27:12;12.30;99.90
46676;DHT22;32412;51.478;5.694;2022-10-03T21:29:40;12.30;99.90
46676;DHT22;32412;51.478;5.694;2022-10-03T21:37:26;12.20;99.90
46676;DHT22;32412;51.478;5.694;2022-10-03T21:40:05;12.20;99.90
46676;DHT22;32412;51.478;5.694;2022-10-03T21:42:46;12.20;99.90
46676;DHT22;32412;51.478;5.694;2022-10-03T21:45:26;12.20;99.90
46676;DHT22;32412;51.478;5.694;2022-10-03T21:47:57;12.20;99.90
46676;DHT22;32412;51.478;5.694;2022-10-03T21:50:32;12.10;99.90
46676;DHT22;32412;51.478;5.694;2022-10-03T21:53:18;12.10;99.90
46676;DHT22;32412;51.478;5.694;2022-10-03T22:04:37;12.00;99.90
46676;DHT22;32412;51.478;5.694;2022-10-03T22:07:16;11.90;99.90
46676;DHT22;32412;51.478;5.694;2022-10-03T22:09:47;11.90;99.90
46676;DHT22;32412;51.478;5.694;2022-10-03T22:12:13;11.80;99.90
46676;DHT22;32412;51.478;5.694;2022-10-03T22:14:48;11.90;99.90
46676;DHT22;32412;51.478;5.694;2022-10-03T22:17:25;11.80;99.90
46676;DHT22;32412;51.478;5.694;2022-10-03T22:20:14;11.80;99.90
46676;DHT22;32412;51.478;5.694;2022-10-03T22:33:43;11.70;99.90
46676;DHT22;32412;51.478;5.694;2022-10-03T22:36:15;11.60;99.90
46676;DHT22;32412;51.478;5.694;2022-10-03T22:38:43;11.60;99.90
46676;DHT22;32412;51.478;5.694;2022-10-03T22:41:14;11.60;99.90
46676;DHT22;32412;51.478;5.694;2022-10-03T22:43:41;11.50;99.90
46676;DHT22;32412;51.478;5.694;2022-10-03T22:46:11;11.50;99.90
46676;DHT22;32412;51.478;5.694;2022-10-03T22:48:45;11.50;99.90
46676;DHT22;32412;51.478;5.694;2022-10-03T22:51:12;11.50;99.90
46676;DHT22;32412;51.478;5.694;2022-10-03T22:53:45;11.40;99.90
46676;DHT22;32412;51.478;5.694;2022-10-03T22:56:44;11.40;99.90
46676;DHT22;32412;51.478;5.694;2022-10-03T22:59:28;11.30;99.90
46676;DHT22;32412;51.478;5.694;2022-10-03T23:01:56;11.30;99.90
46676;DHT22;32412;51.478;5.694;2022-10-03T23:04:33;11.30;99.90
46676;DHT22;32412;51.478;5.694;2022-10-03T23:12:25;11.30;99.90
46676;DHT22;32412;51.478;5.694;2022-10-03T23:14:54;11.30;99.90
46676;DHT22;32412;51.478;5.694;2022-10-03T23:20:17;11.30;99.90
46676;DHT22;32412;51.478;5.694;2022-10-03T23:22:48;11.40;99.90
46676;DHT22;32412;51.478;5.694;2022-10-03T23:25:30;11.30;99.90
46676;DHT22;32412;51.478;5.694;2022-10-03T23:28:09;11.40;99.90
46676;DHT22;32412;51.478;5.694;2022-10-03T23:30:47;11.40;99.90
46676;DHT22;32412;51.478;5.694;2022-10-03T23:36:23;11.50;99.90
46676;DHT22;32412;51.478;5.694;2022-10-03T23:38:49;11.50;99.90
46676;DHT22;32412;51.478;5.694;2022-10-03T23:41:41;11.50;99.90
46676;DHT22;32412;51.478;5.694;2022-10-03T23:44:33;11.50;99.90
46676;DHT22;32412;51.478;5.694;2022-10-03T23:46:59;11.50;99.90
46676;DHT22;32412;51.478;5.694;2022-10-03T23:49:26;11.50;99.90
46676;DHT22;32412;51.478;5.694;2022-10-03T23:51:52;11.60;99.90
46676;DHT22;32412;51.478;5.694;2022-10-03T23:54:19;11.50;99.90
46676;DHT22;32412;51.478;5.694;2022-10-03T23:56:47;11.50;99.90
46676;DHT22;32412;51.478;5.694;2022-10-03T23:59:20;11.50;99.90
